sensor_id;sensor_type;location;lat;lon;timestamp;pressure;altitude;pressure_sealevel;temperature;humidity
48874;BME280;66155;46.204;5.220;2023-03-03T00:02:15;98928.16;;;3.70;55.92
48874;BME280;66155;46.204;5.220;2023-03-03T00:07:15;98928.75;;;3.72;57.01
48874;BME280;66155;46.204;5.220;2023-03-03T00:12:27;98931.50;;;3.64;56.60
48874;BME280;66155;46.204;5.220;2023-03-03T00:17:29;98936.88;;;3.63;57.26
48874;BME280;66155;46.204;5.220;2023-03-03T00:22:35;98927.94;;;3.58;57.29
48874;BME280;66155;46.204;5.220;2023-03-03T00:27:36;98931.09;;;3.54;57.49
48874;BME280;66155;46.204;5.220;2023-03-03T00:32:42;98929.28;;;3.48;58.06
48874;BME280;66155;46.204;5.220;2023-03-03T00:37:43;98935.41;;;3.40;58.03
48874;BME280;66155;46.204;5.220;2023-03-03T00:42:48;98926.50;;;3.42;57.87
48874;BME280;66155;46.204;5.220;2023-03-03T00:47:49;98926.28;;;3.37;57.79
48874;BME280;66155;46.204;5.220;2023-03-03T00:53:01;98924.09;;;3.41;57.73
48874;BME280;66155;46.204;5.220;2023-03-03T00:58:03;98928.13;;;3.50;57.06
48874;BME280;66155;46.204;5.220;2023-03-03T01:03:07;98928.13;;;3.57;57.18
48874;BME280;66155;46.204;5.220;2023-03-03T01:08:07;98934.50;;;3.61;56.80
48874;BME280;66155;46.204;5.220;2023-03-03T01:13:09;98937.84;;;3.61;56.86
48874;BME280;66155;46.204;5.220;2023-03-03T01:18:11;98936.88;;;3.63;56.96
48874;BME280;66155;46.204;5.220;2023-03-03T01:23:12;98938.84;;;3.54;57.36
48874;BME280;66155;46.204;5.220;2023-03-03T01:28:14;98941.56;;;3.46;57.43
48874;BME280;66155;46.204;5.220;2023-03-03T01:33:14;98933.28;;;3.50;57.29
48874;BME280;66155;46.204;5.220;2023-03-03T01:38:15;98936.44;;;3.52;57.28
48874;BME280;66155;46.204;5.220;2023-03-03T01:43:15;98936.81;;;3.49;57.60
48874;BME280;66155;46.204;5.220;2023-03-03T01:48:27;98944.38;;;3.51;57.12
48874;BME280;66155;46.204;5.220;2023-03-03T01:53:36;98935.22;;;3.48;56.95
48874;BME280;66155;46.204;5.220;2023-03-03T01:58:49;98933.44;;;3.42;58.01
48874;BME280;66155;46.204;5.220;2023-03-03T02:03:50;98932.38;;;3.23;58.21
48874;BME280;66155;46.204;5.220;2023-03-03T02:09:04;98936.06;;;3.07;58.63
48874;BME280;66155;46.204;5.220;2023-03-03T02:14:07;98927.47;;;2.87;59.03
48874;BME280;66155;46.204;5.220;2023-03-03T02:19:16;98936.34;;;2.77;59.93
48874;BME280;66155;46.204;5.220;2023-03-03T02:24:27;98926.19;;;2.69;59.55
48874;BME280;66155;46.204;5.220;2023-03-03T02:29:29;98931.69;;;2.66;59.77
48874;BME280;66155;46.204;5.220;2023-03-03T02:34:29;98939.38;;;2.59;59.29
48874;BME280;66155;46.204;5.220;2023-03-03T02:39:30;98935.81;;;2.60;59.68
48874;BME280;66155;46.204;5.220;2023-03-03T02:44:32;98935.81;;;2.60;59.37
48874;BME280;66155;46.204;5.220;2023-03-03T02:49:34;98942.59;;;2.68;59.48
48874;BME280;66155;46.204;5.220;2023-03-03T02:54:35;98927.78;;;2.70;59.08
48874;BME280;66155;46.204;5.220;2023-03-03T02:59:36;98934.91;;;2.75;59.13
48874;BME280;66155;46.204;5.220;2023-03-03T03:04:36;98938.50;;;2.80;58.60
48874;BME280;66155;46.204;5.220;2023-03-03T03:09:37;98933.34;;;2.80;59.03
48874;BME280;66155;46.204;5.220;2023-03-03T03:14:37;98941.84;;;2.74;59.39
48874;BME280;66155;46.204;5.220;2023-03-03T03:19:38;98938.50;;;2.80;59.11
48874;BME280;66155;46.204;5.220;2023-03-03T03:24:38;98946.47;;;2.85;59.10
48874;BME280;66155;46.204;5.220;2023-03-03T03:29:39;98940.16;;;2.88;58.90
48874;BME280;66155;46.204;5.220;2023-03-03T03:34:39;98934.19;;;2.88;58.60
48874;BME280;66155;46.204;5.220;2023-03-03T03:39:40;98938.97;;;2.91;58.74
48874;BME280;66155;46.204;5.220;2023-03-03T03:44:41;98940.56;;;2.92;58.55
48874;BME280;66155;46.204;5.220;2023-03-03T03:49:41;98943.13;;;2.92;58.79
48874;BME280;66155;46.204;5.220;2023-03-03T03:54:42;98949.69;;;2.94;58.94
48874;BME280;66155;46.204;5.220;2023-03-03T03:59:42;98946.88;;;2.89;59.23
48874;BME280;66155;46.204;5.220;2023-03-03T04:04:43;98939.34;;;2.88;58.58
48874;BME280;66155;46.204;5.220;2023-03-03T04:09:44;98945.13;;;2.90;58.57
48874;BME280;66155;46.204;5.220;2023-03-03T04:14:44;98941.13;;;2.87;59.34
48874;BME280;66155;46.204;5.220;2023-03-03T04:19:45;98943.47;;;2.82;58.88
48874;BME280;66155;46.204;5.220;2023-03-03T04:24:46;98949.97;;;2.78;59.06
48874;BME280;66155;46.204;5.220;2023-03-03T04:29:47;98946.81;;;2.76;59.10
48874;BME280;66155;46.204;5.220;2023-03-03T04:34:48;98943.63;;;2.74;59.06
48874;BME280;66155;46.204;5.220;2023-03-03T04:39:48;98950.97;;;2.77;59.05
48874;BME280;66155;46.204;5.220;2023-03-03T04:44:49;98942.44;;;2.76;59.51
48874;BME280;66155;46.204;5.220;2023-03-03T04:49:49;98947.59;;;2.76;59.40
48874;BME280;66155;46.204;5.220;2023-03-03T04:54:50;98939.88;;;2.76;58.98
48874;BME280;66155;46.204;5.220;2023-03-03T04:59:50;98939.69;;;2.78;59.25
48874;BME280;66155;46.204;5.220;2023-03-03T05:04:51;98939.28;;;2.74;59.15
48874;BME280;66155;46.204;5.220;2023-03-03T05:09:51;98942.38;;;2.63;59.82
48874;BME280;66155;46.204;5.220;2023-03-03T05:14:52;98948.41;;;2.48;60.28
48874;BME280;66155;46.204;5.220;2023-03-03T05:19:52;98946.72;;;2.34;60.42
48874;BME280;66155;46.204;5.220;2023-03-03T05:24:53;98949.19;;;2.21;60.76
48874;BME280;66155;46.204;5.220;2023-03-03T05:29:53;98942.03;;;2.16;61.02
48874;BME280;66155;46.204;5.220;2023-03-03T05:34:54;98946.56;;;2.14;61.33
48874;BME280;66155;46.204;5.220;2023-03-03T05:39:54;98938.59;;;2.09;61.32
48874;BME280;66155;46.204;5.220;2023-03-03T05:44:55;98950.84;;;2.07;61.19
48874;BME280;66155;46.204;5.220;2023-03-03T05:49:55;98943.69;;;2.02;61.40
48874;BME280;66155;46.204;5.220;2023-03-03T05:54:56;98948.81;;;2.02;61.48
48874;BME280;66155;46.204;5.220;2023-03-03T05:59:56;98943.31;;;2.05;60.86
48874;BME280;66155;46.204;5.220;2023-03-03T06:04:57;98944.97;;;2.13;60.82
48874;BME280;66155;46.204;5.220;2023-03-03T06:09:57;98944.75;;;2.36;60.21
48874;BME280;66155;46.204;5.220;2023-03-03T06:14:58;98942.88;;;2.52;60.12
48874;BME280;66155;46.204;5.220;2023-03-03T06:19:58;98947.13;;;2.66;60.01
48874;BME280;66155;46.204;5.220;2023-03-03T06:24:59;98949.75;;;2.73;59.88
48874;BME280;66155;46.204;5.220;2023-03-03T06:29:59;98951.97;;;2.76;60.01
48874;BME280;66155;46.204;5.220;2023-03-03T06:35:00;98961.41;;;2.69;60.49
48874;BME280;66155;46.204;5.220;2023-03-03T06:40:01;98966.50;;;2.62;60.44
48874;BME280;66155;46.204;5.220;2023-03-03T06:45:02;98966.69;;;2.60;60.85
48874;BME280;66155;46.204;5.220;2023-03-03T06:50:02;98976.78;;;2.62;60.82
48874;BME280;66155;46.204;5.220;2023-03-03T06:55:12;98988.47;;;2.64;60.77
48874;BME280;66155;46.204;5.220;2023-03-03T07:00:18;98989.72;;;2.75;60.25
48874;BME280;66155;46.204;5.220;2023-03-03T07:05:23;99005.88;;;2.91;60.37
48874;BME280;66155;46.204;5.220;2023-03-03T07:10:27;99012.69;;;3.05;59.62
48874;BME280;66155;46.204;5.220;2023-03-03T07:15:33;99010.53;;;3.09;60.20
48874;BME280;66155;46.204;5.220;2023-03-03T07:20:35;99010.44;;;3.23;59.61
48874;BME280;66155;46.204;5.220;2023-03-03T07:25:38;99017.59;;;3.35;59.44
48874;BME280;66155;46.204;5.220;2023-03-03T07:30:39;99024.06;;;3.59;59.25
48874;BME280;66155;46.204;5.220;2023-03-03T07:35:43;99012.63;;;3.81;58.94
48874;BME280;66155;46.204;5.220;2023-03-03T07:40:49;99014.66;;;4.06;58.67
48874;BME280;66155;46.204;5.220;2023-03-03T07:45:50;99030.16;;;4.26;58.18
48874;BME280;66155;46.204;5.220;2023-03-03T07:50:51;99025.03;;;4.40;58.18
48874;BME280;66155;46.204;5.220;2023-03-03T07:55:52;99033.38;;;4.28;58.38
48874;BME280;66155;46.204;5.220;2023-03-03T08:06:49;99037.81;;;3.79;59.07
48874;BME280;66155;46.204;5.220;2023-03-03T08:11:53;99041.03;;;3.95;58.73
48874;BME280;66155;46.204;5.220;2023-03-03T08:16:55;99045.00;;;4.04;58.85
48874;BME280;66155;46.204;5.220;2023-03-03T08:22:00;99041.09;;;4.22;58.55
48874;BME280;66155;46.204;5.220;2023-03-03T08:27:02;99048.97;;;4.07;58.40
48874;BME280;66155;46.204;5.220;2023-03-03T08:32:03;99048.19;;;4.06;58.46
48874;BME280;66155;46.204;5.220;2023-03-03T08:37:04;99045.41;;;4.01;58.91
48874;BME280;66155;46.204;5.220;2023-03-03T08:42:05;99049.56;;;4.02;59.02
48874;BME280;66155;46.204;5.220;2023-03-03T08:47:05;99041.44;;;4.12;58.52
48874;BME280;66155;46.204;5.220;2023-03-03T08:52:06;99035.94;;;4.28;58.60
48874;BME280;66155;46.204;5.220;2023-03-03T08:57:06;99044.69;;;4.41;58.26
48874;BME280;66155;46.204;5.220;2023-03-03T09:02:07;99042.50;;;4.57;58.34
48874;BME280;66155;46.204;5.220;2023-03-03T09:07:08;99040.31;;;4.61;58.32
48874;BME280;66155;46.204;5.220;2023-03-03T09:12:17;99041.13;;;4.82;58.06
48874;BME280;66155;46.204;5.220;2023-03-03T09:17:23;99038.50;;;4.88;57.95
48874;BME280;66155;46.204;5.220;2023-03-03T09:22:25;99047.84;;;4.96;58.14
48874;BME280;66155;46.204;5.220;2023-03-03T09:27:27;99052.19;;;5.16;57.90
48874;BME280;66155;46.204;5.220;2023-03-03T09:32:30;99061.06;;;5.46;57.66
48874;BME280;66155;46.204;5.220;2023-03-03T09:37:35;99056.19;;;5.77;57.07
48874;BME280;66155;46.204;5.220;2023-03-03T09:43:01;99064.84;;;6.02;57.14
48874;BME280;66155;46.204;5.220;2023-03-03T09:48:23;99059.34;;;6.24;56.64
48874;BME280;66155;46.204;5.220;2023-03-03T10:14:59;99055.09;;;6.87;55.76
48874;BME280;66155;46.204;5.220;2023-03-03T10:25:27;99051.97;;;7.03;55.30
48874;BME280;66155;46.204;5.220;2023-03-03T11:02:44;99053.44;;;7.54;54.39
48874;BME280;66155;46.204;5.220;2023-03-03T11:07:50;99054.34;;;7.60;54.04
48874;BME280;66155;46.204;5.220;2023-03-03T11:18:20;99046.63;;;7.72;54.08
48874;BME280;66155;46.204;5.220;2023-03-03T11:34:02;99054.34;;;7.78;53.81
48874;BME280;66155;46.204;5.220;2023-03-03T11:39:15;99045.53;;;7.79;53.79
48874;BME280;66155;46.204;5.220;2023-03-03T11:44:26;99044.97;;;7.77;53.33
48874;BME280;66155;46.204;5.220;2023-03-03T11:49:50;99047.34;;;7.79;53.03
48874;BME280;66155;46.204;5.220;2023-03-03T11:55:18;99042.09;;;7.86;52.66
48874;BME280;66155;46.204;5.220;2023-03-03T12:00:25;99029.69;;;7.88;53.05
48874;BME280;66155;46.204;5.220;2023-03-03T12:11:29;99029.22;;;8.33;51.83
48874;BME280;66155;46.204;5.220;2023-03-03T12:17:17;99017.59;;;8.24;51.75
48874;BME280;66155;46.204;5.220;2023-03-03T12:28:08;99016.31;;;8.45;49.56
48874;BME280;66155;46.204;5.220;2023-03-03T12:43:54;99007.66;;;8.21;48.74
48874;BME280;66155;46.204;5.220;2023-03-03T12:48:55;98997.81;;;8.11;48.79
48874;BME280;66155;46.204;5.220;2023-03-03T13:04:32;99000.91;;;8.19;48.81
48874;BME280;66155;46.204;5.220;2023-03-03T13:09:56;98993.09;;;8.31;48.33
48874;BME280;66155;46.204;5.220;2023-03-03T13:15:03;98989.97;;;8.41;48.18
48874;BME280;66155;46.204;5.220;2023-03-03T13:20:32;98999.47;;;8.35;48.17
48874;BME280;66155;46.204;5.220;2023-03-03T13:25:54;98989.81;;;8.12;48.60
48874;BME280;66155;46.204;5.220;2023-03-03T13:31:22;98988.09;;;8.06;48.95
48874;BME280;66155;46.204;5.220;2023-03-03T13:36:40;98991.94;;;8.04;48.71
48874;BME280;66155;46.204;5.220;2023-03-03T13:42:02;98992.97;;;8.14;48.31
48874;BME280;66155;46.204;5.220;2023-03-03T13:52:26;98982.03;;;8.24;48.86
48874;BME280;66155;46.204;5.220;2023-03-03T14:08:08;98988.00;;;8.55;47.86
48874;BME280;66155;46.204;5.220;2023-03-03T14:13:18;98976.38;;;8.46;48.13
48874;BME280;66155;46.204;5.220;2023-03-03T14:23:40;98977.38;;;8.80;47.67
48874;BME280;66155;46.204;5.220;2023-03-03T14:28:47;98970.03;;;8.77;48.04
48874;BME280;66155;46.204;5.220;2023-03-03T14:39:31;98970.59;;;8.67;47.33
48874;BME280;66155;46.204;5.220;2023-03-03T14:44:36;98970.47;;;8.74;47.72
48874;BME280;66155;46.204;5.220;2023-03-03T14:49:38;98969.78;;;8.67;47.83
48874;BME280;66155;46.204;5.220;2023-03-03T14:55:00;98966.75;;;8.82;47.75
48874;BME280;66155;46.204;5.220;2023-03-03T15:05:18;98961.66;;;8.75;47.79
48874;BME280;66155;46.204;5.220;2023-03-03T15:15:28;98963.59;;;8.56;48.40
48874;BME280;66155;46.204;5.220;2023-03-03T15:20:49;98966.31;;;8.49;48.60
48874;BME280;66155;46.204;5.220;2023-03-03T15:26:08;98964.38;;;8.45;48.69
48874;BME280;66155;46.204;5.220;2023-03-03T15:57:44;98968.59;;;8.04;50.10
48874;BME280;66155;46.204;5.220;2023-03-03T16:02:53;98967.41;;;7.88;50.76
48874;BME280;66155;46.204;5.220;2023-03-03T16:08:15;98973.53;;;7.93;50.62
48874;BME280;66155;46.204;5.220;2023-03-03T16:13:28;98967.34;;;7.94;50.47
48874;BME280;66155;46.204;5.220;2023-03-03T16:34:54;98968.47;;;7.98;50.84
48874;BME280;66155;46.204;5.220;2023-03-03T16:40:16;98988.88;;;7.95;50.94
48874;BME280;66155;46.204;5.220;2023-03-03T16:45:22;98993.28;;;7.94;51.02
48874;BME280;66155;46.204;5.220;2023-03-03T16:55:56;98996.47;;;7.78;51.64
48874;BME280;66155;46.204;5.220;2023-03-03T17:01:10;98995.56;;;7.72;51.41
48874;BME280;66155;46.204;5.220;2023-03-03T17:06:30;99006.00;;;7.66;51.77
48874;BME280;66155;46.204;5.220;2023-03-03T17:22:12;99016.28;;;7.60;52.22
48874;BME280;66155;46.204;5.220;2023-03-03T17:32:47;99014.16;;;7.69;51.86
48874;BME280;66155;46.204;5.220;2023-03-03T17:38:00;99012.97;;;7.84;51.53
48874;BME280;66155;46.204;5.220;2023-03-03T17:43:22;99010.59;;;7.82;51.79
48874;BME280;66155;46.204;5.220;2023-03-03T18:25:56;99066.28;;;7.79;52.32
48874;BME280;66155;46.204;5.220;2023-03-03T18:30:59;99074.53;;;7.76;52.20
48874;BME280;66155;46.204;5.220;2023-03-03T18:41:31;99079.13;;;7.74;52.33
48874;BME280;66155;46.204;5.220;2023-03-03T18:56:49;99070.69;;;7.79;52.54
48874;BME280;66155;46.204;5.220;2023-03-03T19:07:21;99073.28;;;7.79;52.56
48874;BME280;66155;46.204;5.220;2023-03-03T19:17:47;99080.44;;;7.84;52.71
48874;BME280;66155;46.204;5.220;2023-03-03T19:22:50;99084.81;;;7.83;52.28
48874;BME280;66155;46.204;5.220;2023-03-03T19:39:23;99088.94;;;8.03;52.29
48874;BME280;66155;46.204;5.220;2023-03-03T19:44:14;99092.13;;;8.05;52.56
48874;BME280;66155;46.204;5.220;2023-03-03T20:05:31;99105.09;;;8.05;52.40
48874;BME280;66155;46.204;5.220;2023-03-03T20:26:28;99112.94;;;8.16;52.06
48874;BME280;66155;46.204;5.220;2023-03-03T21:08:52;99120.38;;;8.13;52.50
48874;BME280;66155;46.204;5.220;2023-03-03T21:13:52;99124.22;;;8.10;52.51
48874;BME280;66155;46.204;5.220;2023-03-03T21:19:05;99115.81;;;8.08;52.76
48874;BME280;66155;46.204;5.220;2023-03-03T21:24:10;99121.00;;;8.08;52.48
48874;BME280;66155;46.204;5.220;2023-03-03T21:29:43;99112.44;;;8.08;52.75
48874;BME280;66155;46.204;5.220;2023-03-03T21:34:44;99115.03;;;8.08;52.46
48874;BME280;66155;46.204;5.220;2023-03-03T21:39:44;99118.06;;;8.05;52.94
48874;BME280;66155;46.204;5.220;2023-03-03T21:44:47;99121.91;;;8.02;52.71
48874;BME280;66155;46.204;5.220;2023-03-03T21:49:51;99116.56;;;7.97;52.71
48874;BME280;66155;46.204;5.220;2023-03-03T21:54:51;99113.63;;;7.93;53.13
48874;BME280;66155;46.204;5.220;2023-03-03T21:59:52;99117.69;;;7.89;53.14
48874;BME280;66155;46.204;5.220;2023-03-03T22:04:53;99108.16;;;7.83;53.12
48874;BME280;66155;46.204;5.220;2023-03-03T22:09:53;99107.22;;;7.77;53.41
48874;BME280;66155;46.204;5.220;2023-03-03T22:14:54;99116.81;;;7.77;53.37
48874;BME280;66155;46.204;5.220;2023-03-03T22:19:54;99099.00;;;7.80;53.28
48874;BME280;66155;46.204;5.220;2023-03-03T22:24:55;99104.78;;;7.83;53.22
48874;BME280;66155;46.204;5.220;2023-03-03T22:29:55;99105.19;;;7.79;53.27
48874;BME280;66155;46.204;5.220;2023-03-03T22:34:55;99105.78;;;7.81;53.66
48874;BME280;66155;46.204;5.220;2023-03-03T22:39:56;99115.16;;;7.83;53.64
48874;BME280;66155;46.204;5.220;2023-03-03T22:44:56;99110.97;;;7.81;53.75
48874;BME280;66155;46.204;5.220;2023-03-03T22:49:57;99112.97;;;7.79;53.89
48874;BME280;66155;46.204;5.220;2023-03-03T22:54:58;99109.81;;;7.77;54.10
48874;BME280;66155;46.204;5.220;2023-03-03T22:59:58;99104.41;;;7.79;53.79
48874;BME280;66155;46.204;5.220;2023-03-03T23:04:59;99107.22;;;7.77;53.86
48874;BME280;66155;46.204;5.220;2023-03-03T23:10:01;99117.38;;;7.79;53.94
48874;BME280;66155;46.204;5.220;2023-03-03T23:15:02;99124.38;;;7.78;54.12
48874;BME280;66155;46.204;5.220;2023-03-03T23:20:06;99121.78;;;7.78;54.29
48874;BME280;66155;46.204;5.220;2023-03-03T23:25:08;99118.38;;;7.78;54.03
48874;BME280;66155;46.204;5.220;2023-03-03T23:30:10;99115.78;;;7.78;54.03
48874;BME280;66155;46.204;5.220;2023-03-03T23:35:12;99122.56;;;7.79;54.13
48874;BME280;66155;46.204;5.220;2023-03-03T23:40:14;99115.56;;;7.79;54.24
48874;BME280;66155;46.204;5.220;2023-03-03T23:45:15;99126.16;;;7.78;53.99
48874;BME280;66155;46.204;5.220;2023-03-03T23:50:16;99121.22;;;7.76;54.46
48874;BME280;66155;46.204;5.220;2023-03-03T23:55:17;99135.59;;;7.72;54.31
